sensor_id;sensor_type;location;lat;lon;timestamp;P1;durP1;ratioP1;P2;durP2;ratioP2
1062;SDS011;520;50.932;6.962;2023-03-14T00:02:09;2.20;;;1.30;;
1062;SDS011;520;50.932;6.962;2023-03-14T00:04:37;2.60;;;1.20;;
1062;SDS011;520;50.932;6.962;2023-03-14T00:07:05;1.80;;;1.60;;
1062;SDS011;520;50.932;6.962;2023-03-14T00:09:42;3.03;;;1.40;;
1062;SDS011;520;50.932;6.962;2023-03-14T00:12:15;3.20;;;1.20;;
1062;SDS011;520;50.932;6.962;2023-03-14T00:14:47;6.53;;;1.73;;
1062;SDS011;520;50.932;6.962;2023-03-14T00:17:20;2.33;;;1.33;;
1062;SDS011;520;50.932;6.962;2023-03-14T00:19:56;2.77;;;1.33;;
1062;SDS011;520;50.932;6.962;2023-03-14T00:22:30;2.53;;;1.20;;
1062;SDS011;520;50.932;6.962;2023-03-14T00:24:58;2.20;;;1.43;;
1062;SDS011;520;50.932;6.962;2023-03-14T00:27:27;4.23;;;1.37;;
1062;SDS011;520;50.932;6.962;2023-03-14T00:29:54;2.33;;;1.20;;
1062;SDS011;520;50.932;6.962;2023-03-14T00:32:26;1.80;;;1.40;;
1062;SDS011;520;50.932;6.962;2023-03-14T00:34:55;6.03;;;1.40;;
1062;SDS011;520;50.932;6.962;2023-03-14T00:37:33;4.83;;;2.13;;
1062;SDS011;520;50.932;6.962;2023-03-14T00:40:03;4.90;;;1.47;;
1062;SDS011;520;50.932;6.962;2023-03-14T00:42:36;4.80;;;2.23;;
1062;SDS011;520;50.932;6.962;2023-03-14T00:45:06;4.63;;;1.60;;
1062;SDS011;520;50.932;6.962;2023-03-14T00:47:39;3.37;;;1.80;;
1062;SDS011;520;50.932;6.962;2023-03-14T00:50:19;6.03;;;1.47;;
1062;SDS011;520;50.932;6.962;2023-03-14T00:52:51;3.20;;;1.70;;
1062;SDS011;520;50.932;6.962;2023-03-14T00:55:18;3.60;;;1.40;;
1062;SDS011;520;50.932;6.962;2023-03-14T00:57:55;2.33;;;1.00;;
1062;SDS011;520;50.932;6.962;2023-03-14T01:00:27;1.63;;;1.13;;
1062;SDS011;520;50.932;6.962;2023-03-14T01:03:08;1.90;;;0.90;;
1062;SDS011;520;50.932;6.962;2023-03-14T01:05:42;1.90;;;1.10;;
1062;SDS011;520;50.932;6.962;2023-03-14T01:08:09;4.40;;;1.90;;
1062;SDS011;520;50.932;6.962;2023-03-14T01:10:44;3.77;;;0.90;;
1062;SDS011;520;50.932;6.962;2023-03-14T01:13:14;1.80;;;0.93;;
1062;SDS011;520;50.932;6.962;2023-03-14T01:15:43;2.50;;;1.20;;
1062;SDS011;520;50.932;6.962;2023-03-14T01:18:10;2.63;;;1.00;;
1062;SDS011;520;50.932;6.962;2023-03-14T01:20:45;2.30;;;1.97;;
1062;SDS011;520;50.932;6.962;2023-03-14T01:23:20;3.57;;;1.33;;
1062;SDS011;520;50.932;6.962;2023-03-14T01:25:51;4.10;;;1.07;;
1062;SDS011;520;50.932;6.962;2023-03-14T01:28:20;4.80;;;1.53;;
1062;SDS011;520;50.932;6.962;2023-03-14T01:30:48;3.10;;;1.50;;
1062;SDS011;520;50.932;6.962;2023-03-14T01:33:15;4.10;;;1.00;;
1062;SDS011;520;50.932;6.962;2023-03-14T01:35:41;3.93;;;1.10;;
1062;SDS011;520;50.932;6.962;2023-03-14T01:38:08;2.90;;;1.60;;
1062;SDS011;520;50.932;6.962;2023-03-14T01:40:41;5.90;;;1.10;;
1062;SDS011;520;50.932;6.962;2023-03-14T01:43:14;2.57;;;1.00;;
1062;SDS011;520;50.932;6.962;2023-03-14T01:48:32;2.13;;;1.23;;
1062;SDS011;520;50.932;6.962;2023-03-14T01:51:09;4.37;;;0.80;;
1062;SDS011;520;50.932;6.962;2023-03-14T01:53:48;3.00;;;0.80;;
1062;SDS011;520;50.932;6.962;2023-03-14T01:56:17;1.17;;;0.67;;
1062;SDS011;520;50.932;6.962;2023-03-14T01:58:46;5.30;;;0.80;;
1062;SDS011;520;50.932;6.962;2023-03-14T02:01:16;0.87;;;0.80;;
1062;SDS011;520;50.932;6.962;2023-03-14T02:03:47;5.13;;;0.90;;
1062;SDS011;520;50.932;6.962;2023-03-14T02:06:21;1.87;;;0.77;;
1062;SDS011;520;50.932;6.962;2023-03-14T02:08:51;1.30;;;0.70;;
1062;SDS011;520;50.932;6.962;2023-03-14T02:11:18;3.00;;;1.20;;
1062;SDS011;520;50.932;6.962;2023-03-14T02:13:50;2.40;;;0.60;;
1062;SDS011;520;50.932;6.962;2023-03-14T02:16:17;2.20;;;0.80;;
1062;SDS011;520;50.932;6.962;2023-03-14T02:18:44;0.60;;;0.60;;
1062;SDS011;520;50.932;6.962;2023-03-14T02:23:42;1.23;;;0.90;;
1062;SDS011;520;50.932;6.962;2023-03-14T02:26:36;0.83;;;0.83;;
1062;SDS011;520;50.932;6.962;2023-03-14T02:29:07;0.93;;;0.57;;
1062;SDS011;520;50.932;6.962;2023-03-14T02:31:39;0.60;;;0.50;;
1062;SDS011;520;50.932;6.962;2023-03-14T02:34:06;0.40;;;0.40;;
1062;SDS011;520;50.932;6.962;2023-03-14T02:36:33;1.43;;;0.70;;
1062;SDS011;520;50.932;6.962;2023-03-14T02:41:50;1.50;;;0.80;;
1062;SDS011;520;50.932;6.962;2023-03-14T02:44:17;1.90;;;0.70;;
1062;SDS011;520;50.932;6.962;2023-03-14T02:46:48;2.03;;;0.60;;
1062;SDS011;520;50.932;6.962;2023-03-14T02:49:19;1.73;;;0.90;;
1062;SDS011;520;50.932;6.962;2023-03-14T02:51:50;2.67;;;0.90;;
1062;SDS011;520;50.932;6.962;2023-03-14T02:54:26;1.37;;;0.90;;
1062;SDS011;520;50.932;6.962;2023-03-14T02:57:02;3.07;;;1.10;;
1062;SDS011;520;50.932;6.962;2023-03-14T02:59:34;1.10;;;1.00;;
1062;SDS011;520;50.932;6.962;2023-03-14T03:02:06;1.47;;;0.90;;
1062;SDS011;520;50.932;6.962;2023-03-14T03:04:42;2.07;;;0.83;;
1062;SDS011;520;50.932;6.962;2023-03-14T03:07:10;1.07;;;0.70;;
1062;SDS011;520;50.932;6.962;2023-03-14T03:09:40;2.37;;;0.77;;
1062;SDS011;520;50.932;6.962;2023-03-14T03:12:10;2.63;;;0.97;;
1062;SDS011;520;50.932;6.962;2023-03-14T03:14:42;1.83;;;0.97;;
1062;SDS011;520;50.932;6.962;2023-03-14T03:17:14;1.93;;;0.70;;
1062;SDS011;520;50.932;6.962;2023-03-14T03:19:47;2.90;;;0.83;;
1062;SDS011;520;50.932;6.962;2023-03-14T03:22:19;2.60;;;0.93;;
1062;SDS011;520;50.932;6.962;2023-03-14T03:24:46;2.27;;;1.27;;
1062;SDS011;520;50.932;6.962;2023-03-14T03:27:17;3.17;;;1.20;;
1062;SDS011;520;50.932;6.962;2023-03-14T03:29:44;3.47;;;0.93;;
1062;SDS011;520;50.932;6.962;2023-03-14T03:32:17;1.93;;;0.93;;
1062;SDS011;520;50.932;6.962;2023-03-14T03:34:49;1.93;;;1.20;;
1062;SDS011;520;50.932;6.962;2023-03-14T03:37:20;5.30;;;1.70;;
1062;SDS011;520;50.932;6.962;2023-03-14T03:39:49;2.10;;;1.10;;
1062;SDS011;520;50.932;6.962;2023-03-14T03:42:17;3.17;;;1.27;;
1062;SDS011;520;50.932;6.962;2023-03-14T03:44:48;5.53;;;1.20;;
1062;SDS011;520;50.932;6.962;2023-03-14T03:47:16;5.77;;;1.40;;
1062;SDS011;520;50.932;6.962;2023-03-14T03:49:52;4.10;;;1.40;;
1062;SDS011;520;50.932;6.962;2023-03-14T03:52:21;3.00;;;1.20;;
1062;SDS011;520;50.932;6.962;2023-03-14T03:54:48;5.27;;;1.63;;
1062;SDS011;520;50.932;6.962;2023-03-14T03:57:23;3.27;;;1.17;;
1062;SDS011;520;50.932;6.962;2023-03-14T03:59:53;3.77;;;2.77;;
1062;SDS011;520;50.932;6.962;2023-03-14T04:02:23;3.60;;;1.30;;
1062;SDS011;520;50.932;6.962;2023-03-14T04:04:53;1.93;;;1.00;;
1062;SDS011;520;50.932;6.962;2023-03-14T04:07:25;2.43;;;1.20;;
1062;SDS011;520;50.932;6.962;2023-03-14T04:09:54;3.40;;;1.17;;
1062;SDS011;520;50.932;6.962;2023-03-14T04:12:23;3.20;;;1.10;;
1062;SDS011;520;50.932;6.962;2023-03-14T04:14:54;4.17;;;1.20;;
1062;SDS011;520;50.932;6.962;2023-03-14T04:17:30;1.97;;;1.23;;
1062;SDS011;520;50.932;6.962;2023-03-14T04:20:00;5.53;;;1.67;;
1062;SDS011;520;50.932;6.962;2023-03-14T04:22:40;3.93;;;1.33;;
1062;SDS011;520;50.932;6.962;2023-03-14T04:25:09;4.80;;;1.30;;
1062;SDS011;520;50.932;6.962;2023-03-14T04:27:39;4.77;;;1.30;;
1062;SDS011;520;50.932;6.962;2023-03-14T04:30:08;1.73;;;1.13;;
1062;SDS011;520;50.932;6.962;2023-03-14T04:32:39;4.23;;;1.00;;
1062;SDS011;520;50.932;6.962;2023-03-14T04:35:06;5.07;;;1.30;;
1062;SDS011;520;50.932;6.962;2023-03-14T04:37:36;2.53;;;1.43;;
1062;SDS011;520;50.932;6.962;2023-03-14T04:40:02;5.23;;;1.50;;
1062;SDS011;520;50.932;6.962;2023-03-14T04:42:32;1.73;;;0.87;;
1062;SDS011;520;50.932;6.962;2023-03-14T04:44:59;2.77;;;1.00;;
1062;SDS011;520;50.932;6.962;2023-03-14T04:47:26;1.87;;;1.00;;
1062;SDS011;520;50.932;6.962;2023-03-14T04:49:56;3.10;;;0.87;;
1062;SDS011;520;50.932;6.962;2023-03-14T04:52:22;1.47;;;0.80;;
1062;SDS011;520;50.932;6.962;2023-03-14T04:54:49;2.80;;;1.13;;
1062;SDS011;520;50.932;6.962;2023-03-14T04:57:17;2.53;;;0.73;;
1062;SDS011;520;50.932;6.962;2023-03-14T04:59:44;1.27;;;0.80;;
1062;SDS011;520;50.932;6.962;2023-03-14T05:02:11;1.40;;;0.90;;
1062;SDS011;520;50.932;6.962;2023-03-14T05:04:38;4.17;;;1.60;;
1062;SDS011;520;50.932;6.962;2023-03-14T05:07:04;2.07;;;0.80;;
1062;SDS011;520;50.932;6.962;2023-03-14T05:09:31;1.43;;;1.33;;
1062;SDS011;520;50.932;6.962;2023-03-14T05:11:58;1.90;;;0.73;;
1062;SDS011;520;50.932;6.962;2023-03-14T05:14:30;2.50;;;0.80;;
1062;SDS011;520;50.932;6.962;2023-03-14T05:17:00;1.90;;;0.57;;
1062;SDS011;520;50.932;6.962;2023-03-14T05:19:27;1.20;;;0.70;;
1062;SDS011;520;50.932;6.962;2023-03-14T05:21:54;2.60;;;0.70;;
1062;SDS011;520;50.932;6.962;2023-03-14T05:24:21;1.77;;;0.60;;
1062;SDS011;520;50.932;6.962;2023-03-14T05:26:50;1.13;;;0.80;;
1062;SDS011;520;50.932;6.962;2023-03-14T05:29:24;4.30;;;0.50;;
1062;SDS011;520;50.932;6.962;2023-03-14T05:32:01;1.03;;;0.40;;
1062;SDS011;520;50.932;6.962;2023-03-14T05:34:27;0.60;;;0.60;;
1062;SDS011;520;50.932;6.962;2023-03-14T05:36:54;0.60;;;0.50;;
1062;SDS011;520;50.932;6.962;2023-03-14T05:39:24;1.50;;;0.60;;
1062;SDS011;520;50.932;6.962;2023-03-14T05:41:53;1.13;;;0.50;;
1062;SDS011;520;50.932;6.962;2023-03-14T05:44:22;3.33;;;0.50;;
1062;SDS011;520;50.932;6.962;2023-03-14T05:47:05;0.70;;;0.50;;
1062;SDS011;520;50.932;6.962;2023-03-14T05:49:37;2.10;;;0.43;;
1062;SDS011;520;50.932;6.962;2023-03-14T05:52:13;1.13;;;0.40;;
1062;SDS011;520;50.932;6.962;2023-03-14T05:54:43;1.27;;;0.40;;
1062;SDS011;520;50.932;6.962;2023-03-14T05:57:29;0.97;;;0.47;;
1062;SDS011;520;50.932;6.962;2023-03-14T06:00:03;3.17;;;0.40;;
1062;SDS011;520;50.932;6.962;2023-03-14T06:02:34;0.40;;;0.33;;
1062;SDS011;520;50.932;6.962;2023-03-14T06:05:11;1.10;;;0.40;;
1062;SDS011;520;50.932;6.962;2023-03-14T06:10:16;0.47;;;0.47;;
1062;SDS011;520;50.932;6.962;2023-03-14T06:12:43;0.30;;;0.30;;
1062;SDS011;520;50.932;6.962;2023-03-14T06:15:12;1.57;;;0.50;;
1062;SDS011;520;50.932;6.962;2023-03-14T06:17:39;0.60;;;0.50;;
1062;SDS011;520;50.932;6.962;2023-03-14T06:20:07;0.80;;;0.60;;
1062;SDS011;520;50.932;6.962;2023-03-14T06:22:37;0.60;;;0.40;;
1062;SDS011;520;50.932;6.962;2023-03-14T06:25:24;0.73;;;0.60;;
1062;SDS011;520;50.932;6.962;2023-03-14T06:27:52;0.37;;;0.37;;
1062;SDS011;520;50.932;6.962;2023-03-14T06:30:35;0.53;;;0.40;;
1062;SDS011;520;50.932;6.962;2023-03-14T06:33:12;0.70;;;0.40;;
1062;SDS011;520;50.932;6.962;2023-03-14T06:35:44;0.60;;;0.50;;
1062;SDS011;520;50.932;6.962;2023-03-14T06:38:27;1.03;;;0.50;;
1062;SDS011;520;50.932;6.962;2023-03-14T06:41:21;1.73;;;0.60;;
1062;SDS011;520;50.932;6.962;2023-03-14T06:43:54;1.67;;;0.80;;
1062;SDS011;520;50.932;6.962;2023-03-14T06:46:25;1.60;;;0.63;;
1062;SDS011;520;50.932;6.962;2023-03-14T06:49:11;0.40;;;0.40;;
1062;SDS011;520;50.932;6.962;2023-03-14T06:51:47;2.80;;;0.60;;
1062;SDS011;520;50.932;6.962;2023-03-14T06:54:24;0.40;;;0.40;;
1062;SDS011;520;50.932;6.962;2023-03-14T06:57:01;1.53;;;0.70;;
1062;SDS011;520;50.932;6.962;2023-03-14T06:59:33;0.60;;;0.50;;
1062;SDS011;520;50.932;6.962;2023-03-14T07:02:08;0.40;;;0.30;;
1062;SDS011;520;50.932;6.962;2023-03-14T07:05:27;0.50;;;0.50;;
1062;SDS011;520;50.932;6.962;2023-03-14T07:08:14;0.67;;;0.33;;
1062;SDS011;520;50.932;6.962;2023-03-14T07:16:30;0.60;;;0.60;;
1062;SDS011;520;50.932;6.962;2023-03-14T07:19:35;0.80;;;0.80;;
1062;SDS011;520;50.932;6.962;2023-03-14T07:22:15;0.90;;;0.70;;
1062;SDS011;520;50.932;6.962;2023-03-14T07:24:47;1.07;;;0.83;;
1062;SDS011;520;50.932;6.962;2023-03-14T07:27:40;0.67;;;0.60;;
1062;SDS011;520;50.932;6.962;2023-03-14T07:30:36;0.60;;;0.50;;
1062;SDS011;520;50.932;6.962;2023-03-14T07:33:11;0.40;;;0.40;;
1062;SDS011;520;50.932;6.962;2023-03-14T07:35:43;0.40;;;0.40;;
1062;SDS011;520;50.932;6.962;2023-03-14T07:38:16;0.50;;;0.50;;
1062;SDS011;520;50.932;6.962;2023-03-14T07:41:04;0.70;;;0.53;;
1062;SDS011;520;50.932;6.962;2023-03-14T07:43:42;1.30;;;0.60;;
1062;SDS011;520;50.932;6.962;2023-03-14T07:46:18;1.43;;;0.50;;
1062;SDS011;520;50.932;6.962;2023-03-14T07:49:04;0.60;;;0.40;;
1062;SDS011;520;50.932;6.962;2023-03-14T07:51:38;0.50;;;0.43;;
1062;SDS011;520;50.932;6.962;2023-03-14T07:54:17;0.63;;;0.50;;
1062;SDS011;520;50.932;6.962;2023-03-14T07:56:47;1.50;;;1.17;;
1062;SDS011;520;50.932;6.962;2023-03-14T07:59:28;0.87;;;0.60;;
1062;SDS011;520;50.932;6.962;2023-03-14T08:02:03;0.67;;;0.57;;
1062;SDS011;520;50.932;6.962;2023-03-14T08:04:43;0.50;;;0.40;;
1062;SDS011;520;50.932;6.962;2023-03-14T08:07:17;0.73;;;0.50;;
1062;SDS011;520;50.932;6.962;2023-03-14T08:10:00;0.43;;;0.30;;
1062;SDS011;520;50.932;6.962;2023-03-14T08:12:36;1.17;;;0.40;;
1062;SDS011;520;50.932;6.962;2023-03-14T08:15:10;0.53;;;0.50;;
1062;SDS011;520;50.932;6.962;2023-03-14T08:17:40;0.40;;;0.30;;
1062;SDS011;520;50.932;6.962;2023-03-14T08:20:19;0.70;;;0.60;;
1062;SDS011;520;50.932;6.962;2023-03-14T08:23:04;1.37;;;0.60;;
1062;SDS011;520;50.932;6.962;2023-03-14T08:25:37;1.53;;;0.70;;
1062;SDS011;520;50.932;6.962;2023-03-14T08:28:19;1.03;;;0.50;;
1062;SDS011;520;50.932;6.962;2023-03-14T08:30:50;2.00;;;0.60;;
1062;SDS011;520;50.932;6.962;2023-03-14T08:33:33;1.80;;;0.43;;
1062;SDS011;520;50.932;6.962;2023-03-14T08:36:02;1.17;;;0.47;;
1062;SDS011;520;50.932;6.962;2023-03-14T08:38:34;1.73;;;0.70;;
1062;SDS011;520;50.932;6.962;2023-03-14T08:41:09;1.00;;;0.50;;
1062;SDS011;520;50.932;6.962;2023-03-14T08:43:48;1.07;;;0.67;;
1062;SDS011;520;50.932;6.962;2023-03-14T08:46:29;0.33;;;0.30;;
1062;SDS011;520;50.932;6.962;2023-03-14T08:49:11;1.13;;;1.03;;
1062;SDS011;520;50.932;6.962;2023-03-14T08:51:45;0.80;;;0.60;;
1062;SDS011;520;50.932;6.962;2023-03-14T08:54:17;1.27;;;0.67;;
1062;SDS011;520;50.932;6.962;2023-03-14T08:56:49;0.40;;;0.30;;
1062;SDS011;520;50.932;6.962;2023-03-14T08:59:33;1.90;;;0.63;;
1062;SDS011;520;50.932;6.962;2023-03-14T09:02:08;1.80;;;0.50;;
1062;SDS011;520;50.932;6.962;2023-03-14T09:04:44;0.60;;;0.50;;
1062;SDS011;520;50.932;6.962;2023-03-14T09:07:11;0.50;;;0.47;;
1062;SDS011;520;50.932;6.962;2023-03-14T09:09:47;0.40;;;0.40;;
1062;SDS011;520;50.932;6.962;2023-03-14T09:12:19;0.60;;;0.60;;
1062;SDS011;520;50.932;6.962;2023-03-14T09:14:51;0.50;;;0.50;;
1062;SDS011;520;50.932;6.962;2023-03-14T09:17:22;0.60;;;0.50;;
1062;SDS011;520;50.932;6.962;2023-03-14T09:19:51;2.47;;;0.60;;
1062;SDS011;520;50.932;6.962;2023-03-14T09:22:20;0.73;;;0.73;;
1062;SDS011;520;50.932;6.962;2023-03-14T09:24:49;1.00;;;0.80;;
1062;SDS011;520;50.932;6.962;2023-03-14T09:27:26;2.50;;;0.80;;
1062;SDS011;520;50.932;6.962;2023-03-14T09:29:58;1.13;;;1.03;;
1062;SDS011;520;50.932;6.962;2023-03-14T09:32:45;0.93;;;0.93;;
1062;SDS011;520;50.932;6.962;2023-03-14T09:35:14;1.13;;;1.00;;
1062;SDS011;520;50.932;6.962;2023-03-14T09:38:05;1.70;;;0.90;;
1062;SDS011;520;50.932;6.962;2023-03-14T09:40:36;1.20;;;1.10;;
1062;SDS011;520;50.932;6.962;2023-03-14T09:43:09;1.07;;;0.63;;
1062;SDS011;520;50.932;6.962;2023-03-14T09:45:43;0.40;;;0.40;;
1062;SDS011;520;50.932;6.962;2023-03-14T09:48:19;0.90;;;0.60;;
1062;SDS011;520;50.932;6.962;2023-03-14T09:50:53;0.60;;;0.57;;
1062;SDS011;520;50.932;6.962;2023-03-14T09:53:39;0.90;;;0.80;;
1062;SDS011;520;50.932;6.962;2023-03-14T09:56:27;1.10;;;1.00;;
1062;SDS011;520;50.932;6.962;2023-03-14T09:59:03;0.90;;;0.90;;
1062;SDS011;520;50.932;6.962;2023-03-14T10:01:47;1.03;;;0.90;;
1062;SDS011;520;50.932;6.962;2023-03-14T10:04:23;2.83;;;1.00;;
1062;SDS011;520;50.932;6.962;2023-03-14T10:10:20;2.63;;;2.47;;
1062;SDS011;520;50.932;6.962;2023-03-14T10:12:57;2.63;;;2.43;;
1062;SDS011;520;50.932;6.962;2023-03-14T10:15:31;2.70;;;1.20;;
1062;SDS011;520;50.932;6.962;2023-03-14T10:18:22;1.40;;;1.30;;
1062;SDS011;520;50.932;6.962;2023-03-14T10:24:27;1.40;;;1.30;;
1062;SDS011;520;50.932;6.962;2023-03-14T10:27:05;1.00;;;1.00;;
1062;SDS011;520;50.932;6.962;2023-03-14T10:30:04;1.60;;;1.50;;
1062;SDS011;520;50.932;6.962;2023-03-14T10:32:38;1.60;;;1.43;;
1062;SDS011;520;50.932;6.962;2023-03-14T10:35:26;0.80;;;0.80;;
1062;SDS011;520;50.932;6.962;2023-03-14T10:37:57;1.13;;;1.00;;
1062;SDS011;520;50.932;6.962;2023-03-14T10:41:17;1.13;;;0.93;;
1062;SDS011;520;50.932;6.962;2023-03-14T10:44:02;0.77;;;0.77;;
1062;SDS011;520;50.932;6.962;2023-03-14T10:46:39;1.27;;;1.10;;
1062;SDS011;520;50.932;6.962;2023-03-14T10:49:16;1.73;;;0.90;;
1062;SDS011;520;50.932;6.962;2023-03-14T10:52:18;1.23;;;1.03;;
1062;SDS011;520;50.932;6.962;2023-03-14T10:55:01;1.27;;;1.00;;
1062;SDS011;520;50.932;6.962;2023-03-14T10:57:49;0.80;;;0.80;;
1062;SDS011;520;50.932;6.962;2023-03-14T11:00:23;0.70;;;0.70;;
1062;SDS011;520;50.932;6.962;2023-03-14T11:03:12;1.30;;;1.00;;
1062;SDS011;520;50.932;6.962;2023-03-14T11:09:29;1.60;;;1.20;;
1062;SDS011;520;50.932;6.962;2023-03-14T11:12:16;0.90;;;0.90;;
1062;SDS011;520;50.932;6.962;2023-03-14T11:15:02;1.60;;;1.10;;
1062;SDS011;520;50.932;6.962;2023-03-14T11:17:41;1.17;;;0.97;;
1062;SDS011;520;50.932;6.962;2023-03-14T11:23:01;2.27;;;1.33;;
1062;SDS011;520;50.932;6.962;2023-03-14T11:25:45;2.07;;;1.50;;
1062;SDS011;520;50.932;6.962;2023-03-14T11:28:40;1.30;;;1.20;;
1062;SDS011;520;50.932;6.962;2023-03-14T11:36:37;1.00;;;1.00;;
1062;SDS011;520;50.932;6.962;2023-03-14T11:39:16;1.53;;;1.43;;
1062;SDS011;520;50.932;6.962;2023-03-14T11:41:53;2.10;;;1.10;;
1062;SDS011;520;50.932;6.962;2023-03-14T11:49:29;1.80;;;0.80;;
1062;SDS011;520;50.932;6.962;2023-03-14T11:54:52;1.20;;;0.80;;
1062;SDS011;520;50.932;6.962;2023-03-14T11:57:26;0.77;;;0.50;;
1062;SDS011;520;50.932;6.962;2023-03-14T12:02:43;0.60;;;0.60;;
1062;SDS011;520;50.932;6.962;2023-03-14T12:11:04;1.37;;;0.83;;
1062;SDS011;520;50.932;6.962;2023-03-14T12:13:45;2.97;;;1.43;;
1062;SDS011;520;50.932;6.962;2023-03-14T12:18:51;1.77;;;1.40;;
1062;SDS011;520;50.932;6.962;2023-03-14T12:21:20;4.30;;;1.53;;
1062;SDS011;520;50.932;6.962;2023-03-14T12:23:57;3.67;;;1.80;;
1062;SDS011;520;50.932;6.962;2023-03-14T12:26:43;1.43;;;1.17;;
1062;SDS011;520;50.932;6.962;2023-03-14T12:29:22;2.27;;;1.20;;
1062;SDS011;520;50.932;6.962;2023-03-14T12:32:08;1.67;;;1.20;;
1062;SDS011;520;50.932;6.962;2023-03-14T12:34:56;2.87;;;1.20;;
1062;SDS011;520;50.932;6.962;2023-03-14T12:37:42;2.80;;;1.10;;
1062;SDS011;520;50.932;6.962;2023-03-14T12:40:18;3.53;;;1.40;;
1062;SDS011;520;50.932;6.962;2023-03-14T12:42:57;1.10;;;0.80;;
1062;SDS011;520;50.932;6.962;2023-03-14T12:49:30;2.30;;;1.27;;
1062;SDS011;520;50.932;6.962;2023-03-14T12:52:11;6.10;;;1.60;;
1062;SDS011;520;50.932;6.962;2023-03-14T12:55:19;4.93;;;1.00;;
1062;SDS011;520;50.932;6.962;2023-03-14T12:58:13;1.83;;;0.83;;
1062;SDS011;520;50.932;6.962;2023-03-14T13:01:05;2.57;;;1.30;;
1062;SDS011;520;50.932;6.962;2023-03-14T13:03:47;1.77;;;0.83;;
1062;SDS011;520;50.932;6.962;2023-03-14T13:09:49;2.70;;;0.90;;
1062;SDS011;520;50.932;6.962;2023-03-14T13:12:30;1.90;;;1.03;;
1062;SDS011;520;50.932;6.962;2023-03-14T13:15:15;2.57;;;1.20;;
1062;SDS011;520;50.932;6.962;2023-03-14T13:17:52;3.10;;;1.70;;
1062;SDS011;520;50.932;6.962;2023-03-14T13:23:01;1.60;;;0.80;;
1062;SDS011;520;50.932;6.962;2023-03-14T13:25:36;3.23;;;1.00;;
1062;SDS011;520;50.932;6.962;2023-03-14T13:28:09;2.50;;;0.80;;
1062;SDS011;520;50.932;6.962;2023-03-14T13:31:01;2.53;;;0.87;;
1062;SDS011;520;50.932;6.962;2023-03-14T13:33:29;0.87;;;0.80;;
1062;SDS011;520;50.932;6.962;2023-03-14T13:36:04;2.57;;;2.00;;
1062;SDS011;520;50.932;6.962;2023-03-14T13:45:02;3.73;;;1.07;;
1062;SDS011;520;50.932;6.962;2023-03-14T13:47:34;2.30;;;1.27;;
1062;SDS011;520;50.932;6.962;2023-03-14T13:50:15;1.23;;;1.07;;
1062;SDS011;520;50.932;6.962;2023-03-14T13:52:54;1.57;;;0.90;;
1062;SDS011;520;50.932;6.962;2023-03-14T13:55:27;1.00;;;0.80;;
1062;SDS011;520;50.932;6.962;2023-03-14T13:57:56;3.60;;;1.27;;
1062;SDS011;520;50.932;6.962;2023-03-14T14:00:26;1.93;;;1.00;;
1062;SDS011;520;50.932;6.962;2023-03-14T14:05:40;3.03;;;1.30;;
1062;SDS011;520;50.932;6.962;2023-03-14T14:08:15;5.33;;;1.10;;
1062;SDS011;520;50.932;6.962;2023-03-14T14:11:04;3.97;;;1.30;;
1062;SDS011;520;50.932;6.962;2023-03-14T14:13:51;5.40;;;2.10;;
1062;SDS011;520;50.932;6.962;2023-03-14T14:16:36;4.53;;;1.73;;
1062;SDS011;520;50.932;6.962;2023-03-14T14:19:27;7.37;;;2.00;;
1062;SDS011;520;50.932;6.962;2023-03-14T14:22:17;7.77;;;2.50;;
1062;SDS011;520;50.932;6.962;2023-03-14T14:25:02;7.20;;;1.93;;
1062;SDS011;520;50.932;6.962;2023-03-14T14:27:48;9.23;;;2.53;;
1062;SDS011;520;50.932;6.962;2023-03-14T14:30:43;6.57;;;2.50;;
1062;SDS011;520;50.932;6.962;2023-03-14T14:33:37;8.47;;;2.60;;
1062;SDS011;520;50.932;6.962;2023-03-14T14:45:56;8.37;;;2.80;;
1062;SDS011;520;50.932;6.962;2023-03-14T14:48:29;5.20;;;1.80;;
1062;SDS011;520;50.932;6.962;2023-03-14T14:51:21;6.83;;;2.23;;
1062;SDS011;520;50.932;6.962;2023-03-14T14:54:05;6.50;;;2.50;;
1062;SDS011;520;50.932;6.962;2023-03-14T14:56:44;7.37;;;2.50;;
1062;SDS011;520;50.932;6.962;2023-03-14T14:59:24;12.90;;;2.67;;
1062;SDS011;520;50.932;6.962;2023-03-14T15:02:04;7.13;;;2.00;;
1062;SDS011;520;50.932;6.962;2023-03-14T15:04:35;9.23;;;2.40;;
1062;SDS011;520;50.932;6.962;2023-03-14T15:07:31;3.50;;;1.83;;
1062;SDS011;520;50.932;6.962;2023-03-14T15:12:49;5.40;;;1.80;;
1062;SDS011;520;50.932;6.962;2023-03-14T15:15:22;8.13;;;1.93;;
1062;SDS011;520;50.932;6.962;2023-03-14T15:20:33;4.67;;;1.97;;
1062;SDS011;520;50.932;6.962;2023-03-14T15:27:03;9.63;;;2.50;;
1062;SDS011;520;50.932;6.962;2023-03-14T15:30:02;8.57;;;2.53;;
1062;SDS011;520;50.932;6.962;2023-03-14T15:32:37;7.87;;;2.13;;
1062;SDS011;520;50.932;6.962;2023-03-14T15:35:10;7.20;;;2.17;;
1062;SDS011;520;50.932;6.962;2023-03-14T15:37:57;9.60;;;2.03;;
1062;SDS011;520;50.932;6.962;2023-03-14T15:40:37;4.30;;;1.80;;
1062;SDS011;520;50.932;6.962;2023-03-14T15:43:33;7.67;;;2.20;;
1062;SDS011;520;50.932;6.962;2023-03-14T15:46:08;12.97;;;3.37;;
1062;SDS011;520;50.932;6.962;2023-03-14T15:49:11;7.60;;;2.40;;
1062;SDS011;520;50.932;6.962;2023-03-14T15:51:48;10.67;;;2.40;;
1062;SDS011;520;50.932;6.962;2023-03-14T15:54:38;10.13;;;2.60;;
1062;SDS011;520;50.932;6.962;2023-03-14T15:57:10;6.60;;;3.33;;
1062;SDS011;520;50.932;6.962;2023-03-14T15:59:52;7.77;;;2.33;;
1062;SDS011;520;50.932;6.962;2023-03-14T16:02:27;8.97;;;2.27;;
1062;SDS011;520;50.932;6.962;2023-03-14T16:05:03;5.63;;;2.20;;
1062;SDS011;520;50.932;6.962;2023-03-14T16:08:34;10.23;;;2.83;;
1062;SDS011;520;50.932;6.962;2023-03-14T16:10:47;6.17;;;2.60;;
1062;SDS011;520;50.932;6.962;2023-03-14T16:13:42;12.60;;;3.40;;
1062;SDS011;520;50.932;6.962;2023-03-14T16:16:21;5.97;;;2.43;;
1062;SDS011;520;50.932;6.962;2023-03-14T16:18:52;11.03;;;2.33;;
1062;SDS011;520;50.932;6.962;2023-03-14T16:21:25;8.27;;;3.13;;
1062;SDS011;520;50.932;6.962;2023-03-14T16:24:07;4.50;;;1.93;;
1062;SDS011;520;50.932;6.962;2023-03-14T16:26:48;7.50;;;2.23;;
1062;SDS011;520;50.932;6.962;2023-03-14T16:29:20;6.47;;;2.83;;
1062;SDS011;520;50.932;6.962;2023-03-14T16:31:50;8.50;;;2.47;;
1062;SDS011;520;50.932;6.962;2023-03-14T16:34:19;12.33;;;2.43;;
1062;SDS011;520;50.932;6.962;2023-03-14T16:36:51;9.17;;;2.40;;
1062;SDS011;520;50.932;6.962;2023-03-14T16:39:21;7.43;;;1.90;;
1062;SDS011;520;50.932;6.962;2023-03-14T16:42:20;4.37;;;2.60;;
1062;SDS011;520;50.932;6.962;2023-03-14T16:45:06;4.57;;;1.50;;
1062;SDS011;520;50.932;6.962;2023-03-14T16:47:44;10.30;;;4.77;;
1062;SDS011;520;50.932;6.962;2023-03-14T16:50:25;8.93;;;2.23;;
1062;SDS011;520;50.932;6.962;2023-03-14T16:53:02;7.03;;;1.93;;
1062;SDS011;520;50.932;6.962;2023-03-14T16:55:40;4.67;;;1.47;;
1062;SDS011;520;50.932;6.962;2023-03-14T16:58:20;6.60;;;1.87;;
1062;SDS011;520;50.932;6.962;2023-03-14T17:00:57;5.13;;;1.77;;
1062;SDS011;520;50.932;6.962;2023-03-14T17:03:42;5.43;;;1.77;;
1062;SDS011;520;50.932;6.962;2023-03-14T17:06:18;9.00;;;1.63;;
1062;SDS011;520;50.932;6.962;2023-03-14T17:09:01;5.80;;;1.90;;
1062;SDS011;520;50.932;6.962;2023-03-14T17:11:33;5.90;;;2.17;;
1062;SDS011;520;50.932;6.962;2023-03-14T17:14:09;2.17;;;1.30;;
1062;SDS011;520;50.932;6.962;2023-03-14T17:16:44;8.27;;;2.33;;
1062;SDS011;520;50.932;6.962;2023-03-14T17:19:11;5.23;;;1.80;;
1062;SDS011;520;50.932;6.962;2023-03-14T17:21:40;2.80;;;1.50;;
1062;SDS011;520;50.932;6.962;2023-03-14T17:24:12;3.73;;;1.83;;
1062;SDS011;520;50.932;6.962;2023-03-14T17:26:44;2.00;;;1.40;;
1062;SDS011;520;50.932;6.962;2023-03-14T17:29:11;3.10;;;1.27;;
1062;SDS011;520;50.932;6.962;2023-03-14T17:31:41;5.83;;;1.80;;
1062;SDS011;520;50.932;6.962;2023-03-14T17:34:11;2.70;;;1.10;;
1062;SDS011;520;50.932;6.962;2023-03-14T17:36:40;3.80;;;1.67;;
1062;SDS011;520;50.932;6.962;2023-03-14T17:39:18;4.80;;;1.30;;
1062;SDS011;520;50.932;6.962;2023-03-14T17:42:06;3.03;;;1.40;;
1062;SDS011;520;50.932;6.962;2023-03-14T17:44:47;2.43;;;1.40;;
1062;SDS011;520;50.932;6.962;2023-03-14T17:47:29;2.80;;;1.43;;
1062;SDS011;520;50.932;6.962;2023-03-14T17:50:01;2.10;;;1.80;;
1062;SDS011;520;50.932;6.962;2023-03-14T17:52:43;4.77;;;1.93;;
1062;SDS011;520;50.932;6.962;2023-03-14T17:55:14;4.10;;;1.53;;
1062;SDS011;520;50.932;6.962;2023-03-14T17:57:48;4.30;;;1.87;;